sensor_id;sensor_type;location;lat;lon;timestamp;temperature;humidity
46117;DHT22;32591;48.102;11.772;2023-07-22T00:00:05;16.20;99.90
46117;DHT22;32591;48.102;11.772;2023-07-22T00:02:38;16.20;99.90
46117;DHT22;32591;48.102;11.772;2023-07-22T00:05:06;16.20;99.90
46117;DHT22;32591;48.102;11.772;2023-07-22T00:07:33;16.10;99.90
46117;DHT22;32591;48.102;11.772;2023-07-22T00:10:02;16.00;99.90
46117;DHT22;32591;48.102;11.772;2023-07-22T00:12:30;16.00;99.90
46117;DHT22;32591;48.102;11.772;2023-07-22T00:14:57;16.00;99.90
46117;DHT22;32591;48.102;11.772;2023-07-22T00:17:24;16.00;99.90
46117;DHT22;32591;48.102;11.772;2023-07-22T00:19:52;15.90;99.90
46117;DHT22;32591;48.102;11.772;2023-07-22T00:22:19;15.90;99.90
46117;DHT22;32591;48.102;11.772;2023-07-22T00:24:47;15.90;99.90
46117;DHT22;32591;48.102;11.772;2023-07-22T00:27:16;15.80;99.90
46117;DHT22;32591;48.102;11.772;2023-07-22T00:29:42;15.80;99.90
46117;DHT22;32591;48.102;11.772;2023-07-22T00:32:09;15.80;99.90
46117;DHT22;32591;48.102;11.772;2023-07-22T00:34:36;15.70;99.90
46117;DHT22;32591;48.102;11.772;2023-07-22T00:37:03;15.70;99.90
46117;DHT22;32591;48.102;11.772;2023-07-22T00:39:30;15.60;99.90
46117;DHT22;32591;48.102;11.772;2023-07-22T00:41:57;15.60;99.90
46117;DHT22;32591;48.102;11.772;2023-07-22T00:44:25;15.60;99.90
46117;DHT22;32591;48.102;11.772;2023-07-22T00:46:54;15.60;99.90
46117;DHT22;32591;48.102;11.772;2023-07-22T00:49:23;15.50;99.90
46117;DHT22;32591;48.102;11.772;2023-07-22T00:51:52;15.50;99.90
46117;DHT22;32591;48.102;11.772;2023-07-22T00:54:19;15.40;99.90
46117;DHT22;32591;48.102;11.772;2023-07-22T00:56:47;15.40;99.90
46117;DHT22;32591;48.102;11.772;2023-07-22T00:59:14;15.40;99.90
46117;DHT22;32591;48.102;11.772;2023-07-22T01:01:43;15.30;99.90
46117;DHT22;32591;48.102;11.772;2023-07-22T01:04:13;15.30;99.90
46117;DHT22;32591;48.102;11.772;2023-07-22T01:06:41;15.30;99.90
46117;DHT22;32591;48.102;11.772;2023-07-22T01:09:09;15.30;99.90
46117;DHT22;32591;48.102;11.772;2023-07-22T01:11:36;15.30;99.90
46117;DHT22;32591;48.102;11.772;2023-07-22T01:14:03;15.20;99.90
46117;DHT22;32591;48.102;11.772;2023-07-22T01:16:30;15.30;99.90
46117;DHT22;32591;48.102;11.772;2023-07-22T01:18:59;15.30;99.90
46117;DHT22;32591;48.102;11.772;2023-07-22T01:21:27;15.20;99.90
46117;DHT22;32591;48.102;11.772;2023-07-22T01:23:55;15.20;99.90
46117;DHT22;32591;48.102;11.772;2023-07-22T01:26:22;15.20;99.90
46117;DHT22;32591;48.102;11.772;2023-07-22T01:28:50;15.10;99.90
46117;DHT22;32591;48.102;11.772;2023-07-22T01:31:16;15.10;99.90
46117;DHT22;32591;48.102;11.772;2023-07-22T01:33:43;15.00;99.90
46117;DHT22;32591;48.102;11.772;2023-07-22T01:36:10;15.00;99.90
46117;DHT22;32591;48.102;11.772;2023-07-22T01:38:38;15.00;99.90
46117;DHT22;32591;48.102;11.772;2023-07-22T01:41:06;14.90;99.90
46117;DHT22;32591;48.102;11.772;2023-07-22T01:43:33;14.90;99.90
46117;DHT22;32591;48.102;11.772;2023-07-22T01:46:00;14.90;99.90
46117;DHT22;32591;48.102;11.772;2023-07-22T01:48:27;14.90;99.90
46117;DHT22;32591;48.102;11.772;2023-07-22T01:50:54;14.90;99.90
46117;DHT22;32591;48.102;11.772;2023-07-22T01:53:21;14.90;99.90
46117;DHT22;32591;48.102;11.772;2023-07-22T01:55:48;14.90;99.90
46117;DHT22;32591;48.102;11.772;2023-07-22T01:58:16;14.90;99.90
46117;DHT22;32591;48.102;11.772;2023-07-22T02:00:43;14.90;99.90
46117;DHT22;32591;48.102;11.772;2023-07-22T02:03:10;14.90;99.90
46117;DHT22;32591;48.102;11.772;2023-07-22T02:05:37;14.90;99.90
46117;DHT22;32591;48.102;11.772;2023-07-22T02:08:04;14.90;99.90
46117;DHT22;32591;48.102;11.772;2023-07-22T02:10:31;14.90;99.90
46117;DHT22;32591;48.102;11.772;2023-07-22T02:12:58;14.90;99.90
46117;DHT22;32591;48.102;11.772;2023-07-22T02:15:26;14.90;99.90
46117;DHT22;32591;48.102;11.772;2023-07-22T02:17:53;15.00;99.90
46117;DHT22;32591;48.102;11.772;2023-07-22T02:20:20;15.10;99.90
46117;DHT22;32591;48.102;11.772;2023-07-22T02:22:47;15.10;99.90
46117;DHT22;32591;48.102;11.772;2023-07-22T02:25:14;15.10;99.90
46117;DHT22;32591;48.102;11.772;2023-07-22T02:27:41;15.10;99.90
46117;DHT22;32591;48.102;11.772;2023-07-22T02:30:09;15.10;99.90
46117;DHT22;32591;48.102;11.772;2023-07-22T02:32:39;15.10;99.90
46117;DHT22;32591;48.102;11.772;2023-07-22T02:35:07;15.00;99.90
46117;DHT22;32591;48.102;11.772;2023-07-22T02:37:37;15.00;99.90
46117;DHT22;32591;48.102;11.772;2023-07-22T02:40:05;15.00;99.90
46117;DHT22;32591;48.102;11.772;2023-07-22T02:42:33;15.00;99.90
46117;DHT22;32591;48.102;11.772;2023-07-22T02:45:02;14.90;99.90
46117;DHT22;32591;48.102;11.772;2023-07-22T02:47:29;14.90;99.90
46117;DHT22;32591;48.102;11.772;2023-07-22T02:49:58;14.90;99.90
46117;DHT22;32591;48.102;11.772;2023-07-22T02:52:25;14.90;99.90
46117;DHT22;32591;48.102;11.772;2023-07-22T02:55:07;14.90;99.90
46117;DHT22;32591;48.102;11.772;2023-07-22T02:57:36;14.90;99.90
46117;DHT22;32591;48.102;11.772;2023-07-22T03:00:05;14.80;99.90
46117;DHT22;32591;48.102;11.772;2023-07-22T03:02:34;14.80;99.90
46117;DHT22;32591;48.102;11.772;2023-07-22T03:05:03;14.80;99.90
46117;DHT22;32591;48.102;11.772;2023-07-22T03:07:33;14.80;99.90
46117;DHT22;32591;48.102;11.772;2023-07-22T03:10:00;14.80;99.90
46117;DHT22;32591;48.102;11.772;2023-07-22T03:12:27;14.70;99.90
46117;DHT22;32591;48.102;11.772;2023-07-22T03:14:54;14.70;99.90
46117;DHT22;32591;48.102;11.772;2023-07-22T03:17:21;14.70;99.90
46117;DHT22;32591;48.102;11.772;2023-07-22T03:19:48;14.70;99.90
46117;DHT22;32591;48.102;11.772;2023-07-22T03:22:18;14.70;99.90
46117;DHT22;32591;48.102;11.772;2023-07-22T03:24:45;14.70;99.90
46117;DHT22;32591;48.102;11.772;2023-07-22T03:27:14;14.70;99.90
46117;DHT22;32591;48.102;11.772;2023-07-22T03:29:42;14.60;99.90
46117;DHT22;32591;48.102;11.772;2023-07-22T03:32:09;14.60;99.90
46117;DHT22;32591;48.102;11.772;2023-07-22T03:34:36;14.50;99.90
46117;DHT22;32591;48.102;11.772;2023-07-22T03:37:03;14.40;99.90
46117;DHT22;32591;48.102;11.772;2023-07-22T03:39:32;14.40;99.90
46117;DHT22;32591;48.102;11.772;2023-07-22T03:41:59;14.40;99.90
46117;DHT22;32591;48.102;11.772;2023-07-22T03:44:26;14.40;99.90
46117;DHT22;32591;48.102;11.772;2023-07-22T03:46:54;14.40;99.90
46117;DHT22;32591;48.102;11.772;2023-07-22T03:49:21;14.40;99.90
46117;DHT22;32591;48.102;11.772;2023-07-22T03:51:48;14.30;99.90
46117;DHT22;32591;48.102;11.772;2023-07-22T03:54:15;14.30;99.90
46117;DHT22;32591;48.102;11.772;2023-07-22T03:56:43;14.30;99.90
46117;DHT22;32591;48.102;11.772;2023-07-22T03:59:10;14.30;99.90
46117;DHT22;32591;48.102;11.772;2023-07-22T04:01:37;14.30;99.90
46117;DHT22;32591;48.102;11.772;2023-07-22T04:04:04;14.30;99.90
46117;DHT22;32591;48.102;11.772;2023-07-22T04:06:31;14.30;99.90
46117;DHT22;32591;48.102;11.772;2023-07-22T04:08:58;14.30;99.90
46117;DHT22;32591;48.102;11.772;2023-07-22T04:11:26;14.40;99.90
46117;DHT22;32591;48.102;11.772;2023-07-22T04:13:54;14.40;99.90
46117;DHT22;32591;48.102;11.772;2023-07-22T04:16:21;14.40;99.90
46117;DHT22;32591;48.102;11.772;2023-07-22T04:18:48;14.50;99.90
46117;DHT22;32591;48.102;11.772;2023-07-22T04:21:16;14.40;99.90
46117;DHT22;32591;48.102;11.772;2023-07-22T04:23:43;14.40;99.90
46117;DHT22;32591;48.102;11.772;2023-07-22T04:26:10;14.50;99.90
46117;DHT22;32591;48.102;11.772;2023-07-22T04:28:37;14.50;99.90
46117;DHT22;32591;48.102;11.772;2023-07-22T04:31:05;14.60;99.90
46117;DHT22;32591;48.102;11.772;2023-07-22T04:33:32;14.70;99.90
46117;DHT22;32591;48.102;11.772;2023-07-22T04:36:00;14.70;99.90
46117;DHT22;32591;48.102;11.772;2023-07-22T04:38:27;14.70;99.90
46117;DHT22;32591;48.102;11.772;2023-07-22T04:40:54;14.70;99.90
46117;DHT22;32591;48.102;11.772;2023-07-22T04:43:21;14.60;99.90
46117;DHT22;32591;48.102;11.772;2023-07-22T04:45:48;14.70;99.90
46117;DHT22;32591;48.102;11.772;2023-07-22T04:48:19;14.70;99.90
46117;DHT22;32591;48.102;11.772;2023-07-22T04:50:47;14.80;99.90
46117;DHT22;32591;48.102;11.772;2023-07-22T04:53:16;15.00;99.90
46117;DHT22;32591;48.102;11.772;2023-07-22T04:55:43;15.00;99.90
46117;DHT22;32591;48.102;11.772;2023-07-22T04:58:10;15.10;99.90
46117;DHT22;32591;48.102;11.772;2023-07-22T05:00:38;15.10;99.90
46117;DHT22;32591;48.102;11.772;2023-07-22T05:03:05;15.20;99.90
46117;DHT22;32591;48.102;11.772;2023-07-22T05:05:33;15.30;99.90
46117;DHT22;32591;48.102;11.772;2023-07-22T05:08:01;15.30;99.90
46117;DHT22;32591;48.102;11.772;2023-07-22T05:10:29;15.30;99.90
46117;DHT22;32591;48.102;11.772;2023-07-22T05:12:56;15.30;99.90
46117;DHT22;32591;48.102;11.772;2023-07-22T05:15:23;15.30;99.90
46117;DHT22;32591;48.102;11.772;2023-07-22T05:17:50;15.40;99.90
46117;DHT22;32591;48.102;11.772;2023-07-22T05:20:17;15.40;99.90
46117;DHT22;32591;48.102;11.772;2023-07-22T05:22:46;15.60;99.90
46117;DHT22;32591;48.102;11.772;2023-07-22T05:25:12;15.70;99.90
46117;DHT22;32591;48.102;11.772;2023-07-22T05:27:40;15.80;99.90
46117;DHT22;32591;48.102;11.772;2023-07-22T05:30:07;15.90;99.90
46117;DHT22;32591;48.102;11.772;2023-07-22T05:32:35;16.00;99.90
46117;DHT22;32591;48.102;11.772;2023-07-22T05:35:02;16.10;99.90
46117;DHT22;32591;48.102;11.772;2023-07-22T05:37:31;16.10;99.90
46117;DHT22;32591;48.102;11.772;2023-07-22T05:40:00;16.20;99.90
46117;DHT22;32591;48.102;11.772;2023-07-22T05:42:27;16.20;99.90
46117;DHT22;32591;48.102;11.772;2023-07-22T05:44:55;16.20;99.90
46117;DHT22;32591;48.102;11.772;2023-07-22T05:47:23;16.20;99.90
46117;DHT22;32591;48.102;11.772;2023-07-22T05:49:51;16.40;99.90
46117;DHT22;32591;48.102;11.772;2023-07-22T05:52:18;16.50;99.90
46117;DHT22;32591;48.102;11.772;2023-07-22T05:54:45;16.60;99.90
46117;DHT22;32591;48.102;11.772;2023-07-22T05:57:13;16.60;99.90
46117;DHT22;32591;48.102;11.772;2023-07-22T05:59:40;16.70;99.90
46117;DHT22;32591;48.102;11.772;2023-07-22T06:02:08;16.60;99.90
46117;DHT22;32591;48.102;11.772;2023-07-22T06:04:36;16.70;99.90
46117;DHT22;32591;48.102;11.772;2023-07-22T06:07:05;16.80;99.90
46117;DHT22;32591;48.102;11.772;2023-07-22T06:09:32;16.90;99.90
46117;DHT22;32591;48.102;11.772;2023-07-22T06:11:59;17.00;99.90
46117;DHT22;32591;48.102;11.772;2023-07-22T06:14:27;17.10;99.90
46117;DHT22;32591;48.102;11.772;2023-07-22T06:16:54;17.10;99.90
46117;DHT22;32591;48.102;11.772;2023-07-22T06:19:21;17.10;99.90
46117;DHT22;32591;48.102;11.772;2023-07-22T06:21:49;17.10;99.90
46117;DHT22;32591;48.102;11.772;2023-07-22T06:24:16;17.20;99.90
46117;DHT22;32591;48.102;11.772;2023-07-22T06:26:43;17.30;99.90
46117;DHT22;32591;48.102;11.772;2023-07-22T06:29:10;17.40;99.90
46117;DHT22;32591;48.102;11.772;2023-07-22T06:31:38;17.30;99.90
46117;DHT22;32591;48.102;11.772;2023-07-22T06:34:05;17.40;99.90
46117;DHT22;32591;48.102;11.772;2023-07-22T06:36:32;17.40;99.90
46117;DHT22;32591;48.102;11.772;2023-07-22T06:38:59;17.40;99.90
46117;DHT22;32591;48.102;11.772;2023-07-22T06:41:26;17.40;99.90
46117;DHT22;32591;48.102;11.772;2023-07-22T06:43:53;17.30;99.90
46117;DHT22;32591;48.102;11.772;2023-07-22T06:46:21;17.40;99.90
46117;DHT22;32591;48.102;11.772;2023-07-22T06:48:49;17.50;99.90
46117;DHT22;32591;48.102;11.772;2023-07-22T06:51:16;17.70;99.90
46117;DHT22;32591;48.102;11.772;2023-07-22T06:53:43;17.80;99.90
46117;DHT22;32591;48.102;11.772;2023-07-22T06:56:10;17.80;99.90
46117;DHT22;32591;48.102;11.772;2023-07-22T06:58:37;17.70;99.90
46117;DHT22;32591;48.102;11.772;2023-07-22T07:01:03;17.70;99.90
46117;DHT22;32591;48.102;11.772;2023-07-22T07:03:31;17.80;99.90
46117;DHT22;32591;48.102;11.772;2023-07-22T07:05:59;18.00;99.90
46117;DHT22;32591;48.102;11.772;2023-07-22T07:08:27;18.00;99.90
46117;DHT22;32591;48.102;11.772;2023-07-22T07:10:54;18.00;99.90
46117;DHT22;32591;48.102;11.772;2023-07-22T07:13:21;18.10;99.90
46117;DHT22;32591;48.102;11.772;2023-07-22T07:15:48;18.20;99.90
46117;DHT22;32591;48.102;11.772;2023-07-22T07:18:15;18.30;99.90
46117;DHT22;32591;48.102;11.772;2023-07-22T07:20:43;18.40;99.90
46117;DHT22;32591;48.102;11.772;2023-07-22T07:23:13;18.40;99.90
46117;DHT22;32591;48.102;11.772;2023-07-22T07:25:41;18.50;99.90
46117;DHT22;32591;48.102;11.772;2023-07-22T07:28:08;18.50;99.90
46117;DHT22;32591;48.102;11.772;2023-07-22T07:30:38;18.40;99.90
46117;DHT22;32591;48.102;11.772;2023-07-22T07:33:05;18.30;99.90
46117;DHT22;32591;48.102;11.772;2023-07-22T07:35:32;18.30;99.90
46117;DHT22;32591;48.102;11.772;2023-07-22T07:37:59;18.30;99.90
46117;DHT22;32591;48.102;11.772;2023-07-22T07:40:27;18.50;99.90
46117;DHT22;32591;48.102;11.772;2023-07-22T07:42:54;18.70;99.90
46117;DHT22;32591;48.102;11.772;2023-07-22T07:45:21;18.90;99.90
46117;DHT22;32591;48.102;11.772;2023-07-22T07:47:48;19.00;99.90
46117;DHT22;32591;48.102;11.772;2023-07-22T07:50:15;19.10;99.90
46117;DHT22;32591;48.102;11.772;2023-07-22T07:52:42;19.20;99.90
46117;DHT22;32591;48.102;11.772;2023-07-22T07:55:09;19.20;99.90
46117;DHT22;32591;48.102;11.772;2023-07-22T07:57:37;19.40;99.90
46117;DHT22;32591;48.102;11.772;2023-07-22T08:00:05;19.30;99.90
46117;DHT22;32591;48.102;11.772;2023-07-22T08:02:34;19.30;99.90
46117;DHT22;32591;48.102;11.772;2023-07-22T08:05:01;19.40;99.90
46117;DHT22;32591;48.102;11.772;2023-07-22T08:07:29;19.50;99.90
46117;DHT22;32591;48.102;11.772;2023-07-22T08:09:56;19.70;99.90
46117;DHT22;32591;48.102;11.772;2023-07-22T08:12:24;19.80;99.90
46117;DHT22;32591;48.102;11.772;2023-07-22T08:14:53;19.90;99.90
46117;DHT22;32591;48.102;11.772;2023-07-22T08:17:20;20.00;99.90
46117;DHT22;32591;48.102;11.772;2023-07-22T08:19:47;20.00;99.90
46117;DHT22;32591;48.102;11.772;2023-07-22T08:22:14;20.00;99.90
46117;DHT22;32591;48.102;11.772;2023-07-22T08:24:41;19.90;99.90
46117;DHT22;32591;48.102;11.772;2023-07-22T08:27:08;19.90;99.90
46117;DHT22;32591;48.102;11.772;2023-07-22T08:29:36;20.00;99.90
46117;DHT22;32591;48.102;11.772;2023-07-22T08:32:04;20.10;99.90
46117;DHT22;32591;48.102;11.772;2023-07-22T08:34:32;20.20;99.90
46117;DHT22;32591;48.102;11.772;2023-07-22T08:36:59;20.20;99.90
46117;DHT22;32591;48.102;11.772;2023-07-22T08:39:26;20.20;99.90
46117;DHT22;32591;48.102;11.772;2023-07-22T08:41:54;20.30;98.60
46117;DHT22;32591;48.102;11.772;2023-07-22T08:44:25;20.40;98.50
46117;DHT22;32591;48.102;11.772;2023-07-22T08:46:54;20.50;99.50
46117;DHT22;32591;48.102;11.772;2023-07-22T08:49:24;20.70;99.70
46117;DHT22;32591;48.102;11.772;2023-07-22T08:51:53;20.90;99.00
46117;DHT22;32591;48.102;11.772;2023-07-22T08:54:21;20.80;98.50
46117;DHT22;32591;48.102;11.772;2023-07-22T08:56:49;20.70;98.20
46117;DHT22;32591;48.102;11.772;2023-07-22T08:59:18;20.90;97.40
46117;DHT22;32591;48.102;11.772;2023-07-22T09:01:48;20.90;97.80
46117;DHT22;32591;48.102;11.772;2023-07-22T09:04:15;20.90;97.00
46117;DHT22;32591;48.102;11.772;2023-07-22T09:06:43;20.90;96.60
46117;DHT22;32591;48.102;11.772;2023-07-22T09:09:11;20.90;97.40
46117;DHT22;32591;48.102;11.772;2023-07-22T09:11:38;20.90;96.60
46117;DHT22;32591;48.102;11.772;2023-07-22T09:14:05;20.80;96.90
46117;DHT22;32591;48.102;11.772;2023-07-22T09:16:33;20.80;96.50
46117;DHT22;32591;48.102;11.772;2023-07-22T09:19:03;20.90;96.80
46117;DHT22;32591;48.102;11.772;2023-07-22T09:21:31;20.70;97.40
46117;DHT22;32591;48.102;11.772;2023-07-22T09:24:20;20.70;96.00
46117;DHT22;32591;48.102;11.772;2023-07-22T09:26:48;21.10;96.20
46117;DHT22;32591;48.102;11.772;2023-07-22T09:29:15;21.10;96.50
46117;DHT22;32591;48.102;11.772;2023-07-22T09:31:49;21.30;96.00
46117;DHT22;32591;48.102;11.772;2023-07-22T09:34:17;21.40;95.20
46117;DHT22;32591;48.102;11.772;2023-07-22T09:36:51;21.30;94.90
46117;DHT22;32591;48.102;11.772;2023-07-22T09:39:20;21.40;95.20
46117;DHT22;32591;48.102;11.772;2023-07-22T09:41:47;21.50;94.60
46117;DHT22;32591;48.102;11.772;2023-07-22T09:44:14;21.50;93.80
46117;DHT22;32591;48.102;11.772;2023-07-22T09:46:41;21.40;94.90
46117;DHT22;32591;48.102;11.772;2023-07-22T09:49:09;21.50;94.50
46117;DHT22;32591;48.102;11.772;2023-07-22T09:51:37;21.80;94.10
46117;DHT22;32591;48.102;11.772;2023-07-22T09:54:06;21.80;94.00
46117;DHT22;32591;48.102;11.772;2023-07-22T09:56:44;21.80;91.70
46117;DHT22;32591;48.102;11.772;2023-07-22T09:59:12;21.90;91.90
46117;DHT22;32591;48.102;11.772;2023-07-22T10:01:40;21.90;91.90
46117;DHT22;32591;48.102;11.772;2023-07-22T10:04:08;22.00;91.60
46117;DHT22;32591;48.102;11.772;2023-07-22T10:06:38;22.10;92.90
46117;DHT22;32591;48.102;11.772;2023-07-22T10:09:07;22.20;91.10
46117;DHT22;32591;48.102;11.772;2023-07-22T10:11:39;22.50;90.90
46117;DHT22;32591;48.102;11.772;2023-07-22T10:14:06;22.60;91.40
46117;DHT22;32591;48.102;11.772;2023-07-22T10:16:34;22.50;90.10
46117;DHT22;32591;48.102;11.772;2023-07-22T10:19:03;21.90;90.10
46117;DHT22;32591;48.102;11.772;2023-07-22T10:21:32;21.90;90.90
46117;DHT22;32591;48.102;11.772;2023-07-22T10:24:02;22.10;90.30
46117;DHT22;32591;48.102;11.772;2023-07-22T10:26:30;22.30;90.30
46117;DHT22;32591;48.102;11.772;2023-07-22T10:29:00;22.40;87.50
46117;DHT22;32591;48.102;11.772;2023-07-22T10:31:30;22.40;88.50
46117;DHT22;32591;48.102;11.772;2023-07-22T10:33:57;22.50;87.90
46117;DHT22;32591;48.102;11.772;2023-07-22T10:36:29;22.70;87.10
46117;DHT22;32591;48.102;11.772;2023-07-22T10:38:56;23.00;86.70
46117;DHT22;32591;48.102;11.772;2023-07-22T10:41:24;23.20;86.40
46117;DHT22;32591;48.102;11.772;2023-07-22T10:43:55;23.30;87.00
46117;DHT22;32591;48.102;11.772;2023-07-22T10:46:33;23.40;87.90
46117;DHT22;32591;48.102;11.772;2023-07-22T10:49:10;23.60;85.00
46117;DHT22;32591;48.102;11.772;2023-07-22T10:51:38;23.60;85.20
46117;DHT22;32591;48.102;11.772;2023-07-22T10:54:11;23.40;84.30
46117;DHT22;32591;48.102;11.772;2023-07-22T10:56:41;23.30;83.30
46117;DHT22;32591;48.102;11.772;2023-07-22T10:59:10;23.10;83.30
46117;DHT22;32591;48.102;11.772;2023-07-22T11:01:39;23.20;84.50
46117;DHT22;32591;48.102;11.772;2023-07-22T11:04:11;23.40;83.40
46117;DHT22;32591;48.102;11.772;2023-07-22T11:06:54;23.30;82.70
46117;DHT22;32591;48.102;11.772;2023-07-22T11:09:49;23.10;84.10
46117;DHT22;32591;48.102;11.772;2023-07-22T11:12:17;23.00;84.30
46117;DHT22;32591;48.102;11.772;2023-07-22T11:14:47;23.20;84.60
46117;DHT22;32591;48.102;11.772;2023-07-22T11:17:17;23.50;84.20
46117;DHT22;32591;48.102;11.772;2023-07-22T11:19:45;23.70;83.80
46117;DHT22;32591;48.102;11.772;2023-07-22T11:22:13;23.70;84.00
46117;DHT22;32591;48.102;11.772;2023-07-22T11:24:40;23.90;81.80
46117;DHT22;32591;48.102;11.772;2023-07-22T11:27:08;24.00;83.30
46117;DHT22;32591;48.102;11.772;2023-07-22T11:29:35;24.00;80.50
46117;DHT22;32591;48.102;11.772;2023-07-22T11:32:03;24.00;80.60
46117;DHT22;32591;48.102;11.772;2023-07-22T11:34:32;24.10;80.40
46117;DHT22;32591;48.102;11.772;2023-07-22T11:36:59;24.00;78.80
46117;DHT22;32591;48.102;11.772;2023-07-22T11:39:27;23.80;79.60
46117;DHT22;32591;48.102;11.772;2023-07-22T11:41:59;23.60;80.40
46117;DHT22;32591;48.102;11.772;2023-07-22T11:44:28;23.50;79.70
46117;DHT22;32591;48.102;11.772;2023-07-22T11:46:57;23.30;78.80
46117;DHT22;32591;48.102;11.772;2023-07-22T11:49:27;23.10;79.40
46117;DHT22;32591;48.102;11.772;2023-07-22T11:51:57;23.00;79.20
46117;DHT22;32591;48.102;11.772;2023-07-22T11:54:25;23.10;80.60
46117;DHT22;32591;48.102;11.772;2023-07-22T11:56:53;23.10;81.00
46117;DHT22;32591;48.102;11.772;2023-07-22T11:59:34;23.40;79.70
46117;DHT22;32591;48.102;11.772;2023-07-22T12:02:04;23.50;79.30
46117;DHT22;32591;48.102;11.772;2023-07-22T12:04:32;23.50;78.60
46117;DHT22;32591;48.102;11.772;2023-07-22T12:07:02;23.50;79.30
46117;DHT22;32591;48.102;11.772;2023-07-22T12:09:30;23.80;78.70
46117;DHT22;32591;48.102;11.772;2023-07-22T12:11:58;24.10;78.30
46117;DHT22;32591;48.102;11.772;2023-07-22T12:14:33;24.30;75.80
46117;DHT22;32591;48.102;11.772;2023-07-22T12:17:01;24.60;76.10
46117;DHT22;32591;48.102;11.772;2023-07-22T12:19:29;25.00;75.30
46117;DHT22;32591;48.102;11.772;2023-07-22T12:21:56;25.20;74.10
46117;DHT22;32591;48.102;11.772;2023-07-22T12:24:26;25.20;73.60
46117;DHT22;32591;48.102;11.772;2023-07-22T12:26:53;25.00;74.50
46117;DHT22;32591;48.102;11.772;2023-07-22T12:29:21;24.80;73.70
46117;DHT22;32591;48.102;11.772;2023-07-22T12:31:48;24.30;74.60
46117;DHT22;32591;48.102;11.772;2023-07-22T12:34:15;24.40;75.20
46117;DHT22;32591;48.102;11.772;2023-07-22T12:36:42;24.50;75.10
46117;DHT22;32591;48.102;11.772;2023-07-22T12:39:09;24.40;74.40
46117;DHT22;32591;48.102;11.772;2023-07-22T12:41:37;24.50;73.50
46117;DHT22;32591;48.102;11.772;2023-07-22T12:44:05;24.30;74.50
46117;DHT22;32591;48.102;11.772;2023-07-22T12:46:32;24.40;75.00
46117;DHT22;32591;48.102;11.772;2023-07-22T12:48:59;24.40;73.90
46117;DHT22;32591;48.102;11.772;2023-07-22T12:51:25;24.20;74.30
46117;DHT22;32591;48.102;11.772;2023-07-22T12:53:53;24.10;74.40
46117;DHT22;32591;48.102;11.772;2023-07-22T12:56:20;24.20;73.50
46117;DHT22;32591;48.102;11.772;2023-07-22T12:58:48;24.10;73.80
46117;DHT22;32591;48.102;11.772;2023-07-22T13:01:15;24.10;74.00
46117;DHT22;32591;48.102;11.772;2023-07-22T13:03:42;24.20;74.00
46117;DHT22;32591;48.102;11.772;2023-07-22T13:06:10;24.40;74.70
46117;DHT22;32591;48.102;11.772;2023-07-22T13:08:37;24.60;73.90
46117;DHT22;32591;48.102;11.772;2023-07-22T13:11:04;24.60;72.90
46117;DHT22;32591;48.102;11.772;2023-07-22T13:13:30;24.70;72.30
46117;DHT22;32591;48.102;11.772;2023-07-22T13:15:59;24.60;71.30
46117;DHT22;32591;48.102;11.772;2023-07-22T13:18:26;24.50;71.90
46117;DHT22;32591;48.102;11.772;2023-07-22T13:20:53;24.40;71.40
46117;DHT22;32591;48.102;11.772;2023-07-22T13:23:20;24.30;72.20
46117;DHT22;32591;48.102;11.772;2023-07-22T13:25:47;24.30;74.00
46117;DHT22;32591;48.102;11.772;2023-07-22T13:28:14;24.40;72.40
46117;DHT22;32591;48.102;11.772;2023-07-22T13:30:41;24.80;72.50
46117;DHT22;32591;48.102;11.772;2023-07-22T13:33:09;25.10;70.70
46117;DHT22;32591;48.102;11.772;2023-07-22T13:35:36;25.10;71.60
46117;DHT22;32591;48.102;11.772;2023-07-22T13:38:03;25.00;70.00
46117;DHT22;32591;48.102;11.772;2023-07-22T13:40:30;25.00;70.50
46117;DHT22;32591;48.102;11.772;2023-07-22T13:42:57;24.80;70.80
46117;DHT22;32591;48.102;11.772;2023-07-22T13:45:25;24.80;70.40
46117;DHT22;32591;48.102;11.772;2023-07-22T13:47:53;25.00;70.50
46117;DHT22;32591;48.102;11.772;2023-07-22T13:50:21;24.70;70.30
46117;DHT22;32591;48.102;11.772;2023-07-22T13:52:49;24.50;70.70
46117;DHT22;32591;48.102;11.772;2023-07-22T13:55:16;24.50;71.90
46117;DHT22;32591;48.102;11.772;2023-07-22T13:57:42;24.60;72.60
46117;DHT22;32591;48.102;11.772;2023-07-22T14:00:10;25.00;71.30
46117;DHT22;32591;48.102;11.772;2023-07-22T14:02:38;25.20;69.30
46117;DHT22;32591;48.102;11.772;2023-07-22T14:05:06;25.40;69.30
46117;DHT22;32591;48.102;11.772;2023-07-22T14:07:35;25.50;68.90
46117;DHT22;32591;48.102;11.772;2023-07-22T14:10:04;25.60;68.70
46117;DHT22;32591;48.102;11.772;2023-07-22T14:12:31;25.60;68.40
46117;DHT22;32591;48.102;11.772;2023-07-22T14:14:58;25.40;69.90
46117;DHT22;32591;48.102;11.772;2023-07-22T14:17:25;25.20;68.70
46117;DHT22;32591;48.102;11.772;2023-07-22T14:19:52;25.30;69.80
46117;DHT22;32591;48.102;11.772;2023-07-22T14:22:19;25.60;67.40
46117;DHT22;32591;48.102;11.772;2023-07-22T14:24:47;26.00;68.00
46117;DHT22;32591;48.102;11.772;2023-07-22T14:27:14;26.20;66.30
46117;DHT22;32591;48.102;11.772;2023-07-22T14:29:41;26.20;65.50
46117;DHT22;32591;48.102;11.772;2023-07-22T14:32:08;26.50;65.80
46117;DHT22;32591;48.102;11.772;2023-07-22T14:34:35;26.60;65.80
46117;DHT22;32591;48.102;11.772;2023-07-22T14:37:07;26.40;64.00
46117;DHT22;32591;48.102;11.772;2023-07-22T14:39:34;26.60;64.60
46117;DHT22;32591;48.102;11.772;2023-07-22T14:42:03;26.70;63.70
46117;DHT22;32591;48.102;11.772;2023-07-22T14:44:30;26.50;63.20
46117;DHT22;32591;48.102;11.772;2023-07-22T14:46:57;26.40;63.30
46117;DHT22;32591;48.102;11.772;2023-07-22T14:49:24;26.10;62.90
46117;DHT22;32591;48.102;11.772;2023-07-22T14:51:51;26.00;63.40
46117;DHT22;32591;48.102;11.772;2023-07-22T14:54:18;26.10;62.80
46117;DHT22;32591;48.102;11.772;2023-07-22T14:56:45;26.30;63.40
46117;DHT22;32591;48.102;11.772;2023-07-22T14:59:15;26.50;61.10
46117;DHT22;32591;48.102;11.772;2023-07-22T15:01:42;26.80;61.50
46117;DHT22;32591;48.102;11.772;2023-07-22T15:04:09;26.80;61.60
46117;DHT22;32591;48.102;11.772;2023-07-22T15:06:36;26.50;60.90
46117;DHT22;32591;48.102;11.772;2023-07-22T15:09:04;26.30;61.00
46117;DHT22;32591;48.102;11.772;2023-07-22T15:11:36;26.50;61.30
46117;DHT22;32591;48.102;11.772;2023-07-22T15:14:04;26.90;62.20
46117;DHT22;32591;48.102;11.772;2023-07-22T15:16:32;27.20;60.50
46117;DHT22;32591;48.102;11.772;2023-07-22T15:18:59;27.40;59.40